Astra, Argentina
Current Conditions -  °F | °C
As of 6:00 PM on Tuesday 21 Oct 2014 (Local Time) from SAVC Reporting Station
Broken Clouds Broken Clouds  
Wind Chill: 77°   Ceiling: 20000
Heat Index: 77°   Visibility: 6mi
Dew Point: 23°   Wind: 31mph
Humidity: 13%   Direction: 290°WNW
Pressure: 29.53"   Gusts: 45mph
Location:  45.83°S, 67.52°W
Report Text: SAVC 212100Z 29027G39KT 9999 SCT100 BKN200 25/M05 Q1000
Loading
Personal Weather Stations






























Interactive Weather Map
Tropical Storm Tracking
New forecast layout! Learn more

10-Day Weather Forecast

Advertisements
Track Severe Weather on mobile